TimeCDT,TemperatureF,Dew PointF,Humidity,Sea Level PressureIn,VisibilityMPH,Wind Direction,Wind SpeedMPH,Gust SpeedMPH,PrecipitationIn,Events,Conditions,WindDirDegrees,DateUTC
12:53 AM,69.1,60.1,73,29.85,10.0,NNW,8.1,-,N/A,,Scattered Clouds,330,2013-08-02 05:53:00
1:53 AM,66.0,57.9,75,29.85,10.0,NW,5.8,-,N/A,,Clear,310,2013-08-02 06:53:00
2:53 AM,66.9,57.9,73,29.86,10.0,Calm,Calm,-,N/A,,Clear,0,2013-08-02 07:53:00
3:53 AM,64.0,57.0,78,29.87,10.0,West,4.6,-,N/A,,Clear,280,2013-08-02 08:53:00
4:53 AM,62.1,55.0,78,29.88,10.0,NW,8.1,-,N/A,,Clear,310,2013-08-02 09:53:00
5:53 AM,61.0,55.0,81,29.90,10.0,WNW,4.6,-,N/A,,Scattered Clouds,300,2013-08-02 10:53:00
6:53 AM,64.0,55.0,73,29.90,10.0,NNW,4.6,-,N/A,,Scattered Clouds,330,2013-08-02 11:53:00
7:53 AM,66.9,55.9,68,29.91,10.0,NW,4.6,-,N/A,,Partly Cloudy,320,2013-08-02 12:53:00
8:53 AM,71.1,55.9,59,29.92,10.0,NNW,5.8,-,N/A,,Partly Cloudy,340,2013-08-02 13:53:00
9:53 AM,73.9,54.0,50,29.93,10.0,NNW,8.1,-,N/A,,Scattered Clouds,340,2013-08-02 14:53:00
10:53 AM,75.0,53.1,46,29.92,10.0,North,9.2,-,N/A,,Mostly Cloudy,10,2013-08-02 15:53:00
11:53 AM,75.9,52.0,43,29.94,10.0,North,9.2,-,N/A,,Mostly Cloudy,10,2013-08-02 16:53:00
12:53 PM,78.1,48.9,36,29.93,10.0,NNW,13.8,19.6,N/A,,Mostly Cloudy,340,2013-08-02 17:53:00
1:53 PM,79.0,46.0,31,29.94,10.0,North,12.7,19.6,N/A,,Mostly Cloudy,10,2013-08-02 18:53:00
2:53 PM,78.1,46.9,33,29.95,10.0,NW,12.7,-,N/A,,Mostly Cloudy,320,2013-08-02 19:53:00
3:53 PM,77.0,50.0,39,29.95,10.0,NW,10.4,-,N/A,,Overcast,310,2013-08-02 20:53:00
4:53 PM,75.9,48.9,38,29.95,10.0,North,10.4,-,N/A,,Overcast,10,2013-08-02 21:53:00
5:53 PM,78.1,48.9,36,29.96,10.0,NNW,8.1,17.3,N/A,,Mostly Cloudy,330,2013-08-02 22:53:00
6:53 PM,77.0,48.9,37,29.96,10.0,North,6.9,-,N/A,,Mostly Cloudy,350,2013-08-02 23:53:00
7:53 PM,75.0,50.0,41,29.98,10.0,NW,6.9,-,N/A,,Scattered Clouds,320,2013-08-03 00:53:00
8:53 PM,72.0,48.0,43,29.99,10.0,NNW,5.8,-,N/A,,Scattered Clouds,340,2013-08-03 01:53:00
9:53 PM,71.1,50.0,47,30.02,10.0,Variable,4.6,-,N/A,,Partly Cloudy,0,2013-08-03 02:53:00
10:53 PM,66.0,52.0,60,30.03,10.0,NNW,3.5,-,N/A,,Clear,340,2013-08-03 03:53:00
11:53 PM,64.0,53.1,67,30.04,10.0,NW,3.5,-,N/A,,Partly Cloudy,310,2013-08-03 04:53:00